sensor_id;sensor_type;location;lat;lon;timestamp;pressure;altitude;pressure_sealevel;temperature;humidity
70302;BME280;57706;56.326;43.882;2023-01-20T00:01:48;101799.44;;;0.14;57.80
70302;BME280;57706;56.326;43.882;2023-01-20T00:04:14;101791.13;;;0.06;58.28
70302;BME280;57706;56.326;43.882;2023-01-20T00:07:02;101794.59;;;-0.18;59.18
70302;BME280;57706;56.326;43.882;2023-01-20T00:09:27;101792.78;;;0.08;58.03
70302;BME280;57706;56.326;43.882;2023-01-20T00:11:53;101794.63;;;0.05;58.15
70302;BME280;57706;56.326;43.882;2023-01-20T00:14:19;101783.38;;;0.06;57.89
70302;BME280;57706;56.326;43.882;2023-01-20T00:16:45;101780.19;;;0.21;57.81
70302;BME280;57706;56.326;43.882;2023-01-20T00:19:12;101791.88;;;0.09;58.15
70302;BME280;57706;56.326;43.882;2023-01-20T00:21:39;101774.88;;;-0.20;58.84
70302;BME280;57706;56.326;43.882;2023-01-20T00:24:23;101777.31;;;0.07;58.36
70302;BME280;57706;56.326;43.882;2023-01-20T00:26:50;101782.25;;;0.13;57.80
70302;BME280;57706;56.326;43.882;2023-01-20T00:29:16;101779.94;;;-0.17;58.63
70302;BME280;57706;56.326;43.882;2023-01-20T00:31:42;101784.84;;;-0.33;59.34
70302;BME280;57706;56.326;43.882;2023-01-20T00:34:08;101785.88;;;-0.15;58.81
70302;BME280;57706;56.326;43.882;2023-01-20T00:36:53;101789.19;;;0.11;57.67
70302;BME280;57706;56.326;43.882;2023-01-20T00:39:18;101788.00;;;-0.03;58.41
70302;BME280;57706;56.326;43.882;2023-01-20T00:41:44;101793.16;;;-0.25;59.00
70302;BME280;57706;56.326;43.882;2023-01-20T00:44:10;101797.81;;;-0.11;58.63
70302;BME280;57706;56.326;43.882;2023-01-20T00:46:36;101783.78;;;-0.28;58.98
70302;BME280;57706;56.326;43.882;2023-01-20T00:49:02;101787.16;;;0.19;57.67
70302;BME280;57706;56.326;43.882;2023-01-20T00:51:27;101771.16;;;0.32;57.65
70302;BME280;57706;56.326;43.882;2023-01-20T00:53:53;101780.81;;;0.06;58.59
70302;BME280;57706;56.326;43.882;2023-01-20T00:56:19;101777.53;;;0.01;58.82
70302;BME280;57706;56.326;43.882;2023-01-20T00:58:45;101778.09;;;0.09;58.48
70302;BME280;57706;56.326;43.882;2023-01-20T01:01:11;101786.00;;;0.26;57.81
70302;BME280;57706;56.326;43.882;2023-01-20T01:03:37;101789.31;;;0.30;58.16
70302;BME280;57706;56.326;43.882;2023-01-20T01:06:11;101786.78;;;0.29;57.46
70302;BME280;57706;56.326;43.882;2023-01-20T01:08:38;101793.91;;;0.23;57.82
70302;BME280;57706;56.326;43.882;2023-01-20T01:11:04;101782.69;;;0.23;57.94
70302;BME280;57706;56.326;43.882;2023-01-20T01:13:30;101776.94;;;-0.06;58.62
70302;BME280;57706;56.326;43.882;2023-01-20T01:15:56;101765.66;;;0.39;56.87
70302;BME280;57706;56.326;43.882;2023-01-20T01:18:22;101774.63;;;0.53;57.19
70302;BME280;57706;56.326;43.882;2023-01-20T01:20:48;101784.75;;;0.15;58.44
70302;BME280;57706;56.326;43.882;2023-01-20T01:23:32;101779.22;;;0.24;58.05
70302;BME280;57706;56.326;43.882;2023-01-20T01:25:58;101785.72;;;0.34;57.48
70302;BME280;57706;56.326;43.882;2023-01-20T01:28:42;101783.19;;;0.33;57.45
70302;BME280;57706;56.326;43.882;2023-01-20T01:31:08;101775.09;;;0.40;57.25
70302;BME280;57706;56.326;43.882;2023-01-20T01:33:34;101780.81;;;0.49;57.00
70302;BME280;57706;56.326;43.882;2023-01-20T01:36:02;101773.81;;;0.30;57.62
70302;BME280;57706;56.326;43.882;2023-01-20T01:38:28;101760.81;;;0.32;57.51
70302;BME280;57706;56.326;43.882;2023-01-20T01:40:54;101764.91;;;0.37;57.46
70302;BME280;57706;56.326;43.882;2023-01-20T01:43:57;101776.59;;;0.03;58.68
70302;BME280;57706;56.326;43.882;2023-01-20T01:46:24;101778.63;;;-0.05;58.87
70302;BME280;57706;56.326;43.882;2023-01-20T01:48:50;101792.16;;;0.02;58.41
70302;BME280;57706;56.326;43.882;2023-01-20T01:51:19;101805.56;;;-0.11;58.78
70302;BME280;57706;56.326;43.882;2023-01-20T01:54:04;101815.88;;;-0.11;58.90
70302;BME280;57706;56.326;43.882;2023-01-20T01:56:33;101792.59;;;0.13;58.23
70302;BME280;57706;56.326;43.882;2023-01-20T01:59:01;101810.56;;;0.16;57.78
70302;BME280;57706;56.326;43.882;2023-01-20T02:01:30;101790.78;;;0.15;57.90
70302;BME280;57706;56.326;43.882;2023-01-20T02:04:10;101760.34;;;-0.01;58.28
70302;BME280;57706;56.326;43.882;2023-01-20T02:06:43;101781.25;;;-0.07;58.51
70302;BME280;57706;56.326;43.882;2023-01-20T02:09:12;101773.41;;;-0.04;58.33
70302;BME280;57706;56.326;43.882;2023-01-20T02:11:48;101769.59;;;0.27;56.87
70302;BME280;57706;56.326;43.882;2023-01-20T02:14:37;101776.81;;;-0.03;57.97
70302;BME280;57706;56.326;43.882;2023-01-20T02:25:17;101751.22;;;0.13;57.25
70302;BME280;57706;56.326;43.882;2023-01-20T02:33:48;101776.19;;;0.35;56.78
70302;BME280;57706;56.326;43.882;2023-01-20T02:36:26;101759.50;;;0.21;57.16
70302;BME280;57706;56.326;43.882;2023-01-20T02:39:01;101739.22;;;0.33;56.95
70302;BME280;57706;56.326;43.882;2023-01-20T02:42:03;101751.56;;;0.26;56.80
70302;BME280;57706;56.326;43.882;2023-01-20T02:50:12;101746.50;;;-0.22;58.66
70302;BME280;57706;56.326;43.882;2023-01-20T02:52:43;101749.78;;;0.06;57.80
70302;BME280;57706;56.326;43.882;2023-01-20T02:55:17;101768.66;;;0.08;58.35
70302;BME280;57706;56.326;43.882;2023-01-20T02:57:52;101757.19;;;0.36;57.86
70302;BME280;57706;56.326;43.882;2023-01-20T03:00:45;101766.00;;;0.32;57.49
70302;BME280;57706;56.326;43.882;2023-01-20T03:03:17;101766.94;;;0.29;58.05
70302;BME280;57706;56.326;43.882;2023-01-20T03:05:59;101766.47;;;0.19;58.14
70302;BME280;57706;56.326;43.882;2023-01-20T03:08:29;101782.34;;;0.10;58.90
70302;BME280;57706;56.326;43.882;2023-01-20T03:11:03;101784.16;;;0.08;59.42
70302;BME280;57706;56.326;43.882;2023-01-20T03:13:43;101797.06;;;0.52;57.75
70302;BME280;57706;56.326;43.882;2023-01-20T03:16:15;101777.06;;;0.35;58.25
70302;BME280;57706;56.326;43.882;2023-01-20T03:18:42;101782.28;;;0.34;58.88
70302;BME280;57706;56.326;43.882;2023-01-20T03:21:09;101759.38;;;0.24;59.17
70302;BME280;57706;56.326;43.882;2023-01-20T03:24:00;101769.75;;;0.45;58.68
70302;BME280;57706;56.326;43.882;2023-01-20T03:26:24;101775.06;;;0.42;58.74
70302;BME280;57706;56.326;43.882;2023-01-20T03:28:50;101763.19;;;0.59;58.86
70302;BME280;57706;56.326;43.882;2023-01-20T03:31:19;101786.31;;;0.62;58.66
70302;BME280;57706;56.326;43.882;2023-01-20T03:33:47;101786.75;;;0.73;58.19
70302;BME280;57706;56.326;43.882;2023-01-20T03:36:15;101793.22;;;0.63;58.28
70302;BME280;57706;56.326;43.882;2023-01-20T03:38:59;101798.16;;;0.47;59.32
70302;BME280;57706;56.326;43.882;2023-01-20T03:49:56;101804.97;;;0.27;62.63
70302;BME280;57706;56.326;43.882;2023-01-20T03:53:02;101796.97;;;0.33;62.40
70302;BME280;57706;56.326;43.882;2023-01-20T03:55:51;101791.25;;;0.47;62.63
70302;BME280;57706;56.326;43.882;2023-01-20T03:58:25;101791.09;;;0.30;63.29
70302;BME280;57706;56.326;43.882;2023-01-20T04:00:53;101777.78;;;0.39;62.62
70302;BME280;57706;56.326;43.882;2023-01-20T04:03:43;101786.84;;;0.49;62.01
70302;BME280;57706;56.326;43.882;2023-01-20T04:06:11;101796.53;;;0.44;62.14
70302;BME280;57706;56.326;43.882;2023-01-20T04:08:43;101824.69;;;0.52;62.00
70302;BME280;57706;56.326;43.882;2023-01-20T04:11:10;101802.44;;;0.25;62.45
70302;BME280;57706;56.326;43.882;2023-01-20T04:13:36;101805.97;;;0.45;62.29
70302;BME280;57706;56.326;43.882;2023-01-20T04:16:02;101809.88;;;0.56;61.97
70302;BME280;57706;56.326;43.882;2023-01-20T04:18:33;101855.13;;;0.45;61.95
70302;BME280;57706;56.326;43.882;2023-01-20T04:21:02;101847.56;;;0.63;61.82
70302;BME280;57706;56.326;43.882;2023-01-20T04:23:41;101822.16;;;0.50;62.01
70302;BME280;57706;56.326;43.882;2023-01-20T04:26:09;101819.63;;;0.49;62.71
70302;BME280;57706;56.326;43.882;2023-01-20T04:28:35;101835.16;;;0.71;61.49
70302;BME280;57706;56.326;43.882;2023-01-20T04:31:01;101810.94;;;0.72;62.11
70302;BME280;57706;56.326;43.882;2023-01-20T04:33:26;101818.63;;;0.74;62.08
70302;BME280;57706;56.326;43.882;2023-01-20T04:35:52;101813.84;;;0.64;62.12
70302;BME280;57706;56.326;43.882;2023-01-20T04:38:18;101822.44;;;0.86;62.04
70302;BME280;57706;56.326;43.882;2023-01-20T04:40:44;101829.13;;;0.71;62.40
70302;BME280;57706;56.326;43.882;2023-01-20T04:43:10;101830.44;;;0.59;63.54
70302;BME280;57706;56.326;43.882;2023-01-20T04:45:37;101815.34;;;0.91;63.37
70302;BME280;57706;56.326;43.882;2023-01-20T04:48:07;101820.91;;;0.81;65.00
70302;BME280;57706;56.326;43.882;2023-01-20T04:50:37;101826.97;;;0.60;65.49
70302;BME280;57706;56.326;43.882;2023-01-20T04:53:04;101837.84;;;0.68;65.12
70302;BME280;57706;56.326;43.882;2023-01-20T04:55:31;101821.91;;;0.57;67.87
70302;BME280;57706;56.326;43.882;2023-01-20T04:58:15;101822.34;;;0.23;67.86
70302;BME280;57706;56.326;43.882;2023-01-20T05:00:41;101855.13;;;0.23;70.52
70302;BME280;57706;56.326;43.882;2023-01-20T05:03:07;101819.28;;;0.36;69.57
70302;BME280;57706;56.326;43.882;2023-01-20T05:05:33;101823.25;;;0.22;69.36
70302;BME280;57706;56.326;43.882;2023-01-20T05:07:59;101837.09;;;0.21;70.52
70302;BME280;57706;56.326;43.882;2023-01-20T05:10:24;101831.28;;;0.15;69.60
70302;BME280;57706;56.326;43.882;2023-01-20T05:12:50;101830.53;;;0.12;69.79
70302;BME280;57706;56.326;43.882;2023-01-20T05:15:16;101841.38;;;0.22;70.49
70302;BME280;57706;56.326;43.882;2023-01-20T05:18:00;101845.13;;;0.36;69.27
70302;BME280;57706;56.326;43.882;2023-01-20T05:20:26;101854.03;;;0.29;69.52
70302;BME280;57706;56.326;43.882;2023-01-20T05:22:52;101843.69;;;0.29;68.89
70302;BME280;57706;56.326;43.882;2023-01-20T05:25:18;101857.66;;;0.24;69.49
70302;BME280;57706;56.326;43.882;2023-01-20T05:27:43;101842.50;;;0.15;69.96
70302;BME280;57706;56.326;43.882;2023-01-20T05:30:10;101845.44;;;0.50;69.84
70302;BME280;57706;56.326;43.882;2023-01-20T05:32:36;101866.44;;;0.43;67.13
70302;BME280;57706;56.326;43.882;2023-01-20T05:35:03;101845.38;;;0.52;67.09
70302;BME280;57706;56.326;43.882;2023-01-20T05:37:29;101864.88;;;0.38;66.89
70302;BME280;57706;56.326;43.882;2023-01-20T05:39:55;101873.91;;;0.28;68.03
70302;BME280;57706;56.326;43.882;2023-01-20T05:42:39;101846.09;;;0.56;67.70
70302;BME280;57706;56.326;43.882;2023-01-20T05:45:05;101849.59;;;0.54;66.43
70302;BME280;57706;56.326;43.882;2023-01-20T05:47:31;101866.69;;;0.59;66.73
70302;BME280;57706;56.326;43.882;2023-01-20T05:49:57;101860.97;;;0.50;65.65
70302;BME280;57706;56.326;43.882;2023-01-20T05:52:23;101842.38;;;0.63;64.19
70302;BME280;57706;56.326;43.882;2023-01-20T05:55:08;101850.53;;;0.74;63.49
70302;BME280;57706;56.326;43.882;2023-01-20T05:57:33;101871.25;;;0.74;62.93
70302;BME280;57706;56.326;43.882;2023-01-20T05:59:59;101900.53;;;0.97;61.61
70302;BME280;57706;56.326;43.882;2023-01-20T06:02:25;101865.72;;;1.04;61.16
70302;BME280;57706;56.326;43.882;2023-01-20T06:04:51;101899.63;;;0.98;60.16
70302;BME280;57706;56.326;43.882;2023-01-20T06:07:16;101894.47;;;0.98;60.30
70302;BME280;57706;56.326;43.882;2023-01-20T06:09:42;101884.25;;;1.16;59.48
70302;BME280;57706;56.326;43.882;2023-01-20T06:12:09;101900.28;;;1.03;59.17
70302;BME280;57706;56.326;43.882;2023-01-20T06:14:34;101887.59;;;1.18;57.84
70302;BME280;57706;56.326;43.882;2023-01-20T06:17:00;101897.66;;;1.26;57.89
70302;BME280;57706;56.326;43.882;2023-01-20T06:19:26;101902.22;;;1.19;56.95
70302;BME280;57706;56.326;43.882;2023-01-20T06:21:52;101907.59;;;1.14;56.40
70302;BME280;57706;56.326;43.882;2023-01-20T06:24:18;101893.19;;;1.29;56.61
70302;BME280;57706;56.326;43.882;2023-01-20T06:26:44;101904.03;;;1.17;55.47
70302;BME280;57706;56.326;43.882;2023-01-20T06:29:10;101901.84;;;1.28;54.18
70302;BME280;57706;56.326;43.882;2023-01-20T06:31:36;101916.69;;;1.25;54.10
70302;BME280;57706;56.326;43.882;2023-01-20T06:34:02;101907.94;;;1.27;52.71
70302;BME280;57706;56.326;43.882;2023-01-20T06:36:28;101915.59;;;1.30;52.37
70302;BME280;57706;56.326;43.882;2023-01-20T06:38:53;101901.06;;;1.26;50.30
70302;BME280;57706;56.326;43.882;2023-01-20T06:41:20;101898.41;;;1.28;50.34
70302;BME280;57706;56.326;43.882;2023-01-20T06:43:46;101901.84;;;1.28;50.01
70302;BME280;57706;56.326;43.882;2023-01-20T06:46:13;101897.56;;;1.48;49.58
70302;BME280;57706;56.326;43.882;2023-01-20T06:48:40;101922.38;;;1.54;47.45
70302;BME280;57706;56.326;43.882;2023-01-20T06:51:10;101881.88;;;1.51;46.76
70302;BME280;57706;56.326;43.882;2023-01-20T06:53:37;101892.13;;;1.33;46.64
70302;BME280;57706;56.326;43.882;2023-01-20T06:56:03;101907.41;;;1.60;45.79
70302;BME280;57706;56.326;43.882;2023-01-20T06:58:30;101929.19;;;1.56;44.53
70302;BME280;57706;56.326;43.882;2023-01-20T07:00:57;101891.94;;;1.59;44.28
70302;BME280;57706;56.326;43.882;2023-01-20T07:03:27;101933.19;;;1.63;43.97
70302;BME280;57706;56.326;43.882;2023-01-20T07:05:58;101914.44;;;1.37;43.96
70302;BME280;57706;56.326;43.882;2023-01-20T07:08:24;101922.28;;;1.76;43.39
70302;BME280;57706;56.326;43.882;2023-01-20T07:10:50;101909.78;;;1.65;42.60
70302;BME280;57706;56.326;43.882;2023-01-20T07:13:16;101897.53;;;1.69;42.63
70302;BME280;57706;56.326;43.882;2023-01-20T07:15:41;101914.97;;;1.65;42.82
70302;BME280;57706;56.326;43.882;2023-01-20T07:18:07;101935.44;;;1.71;41.89
70302;BME280;57706;56.326;43.882;2023-01-20T07:20:33;101929.56;;;1.68;41.43
70302;BME280;57706;56.326;43.882;2023-01-20T07:23:00;101894.00;;;1.50;42.05
70302;BME280;57706;56.326;43.882;2023-01-20T07:25:26;101926.34;;;1.82;41.10
70302;BME280;57706;56.326;43.882;2023-01-20T07:27:52;101914.25;;;1.82;40.99
70302;BME280;57706;56.326;43.882;2023-01-20T07:30:18;101946.78;;;1.69;40.75
70302;BME280;57706;56.326;43.882;2023-01-20T07:32:44;101935.34;;;1.93;40.47
70302;BME280;57706;56.326;43.882;2023-01-20T07:35:10;101918.00;;;1.75;40.72
70302;BME280;57706;56.326;43.882;2023-01-20T07:37:35;101944.63;;;1.99;39.31
70302;BME280;57706;56.326;43.882;2023-01-20T07:40:01;101911.34;;;1.69;40.42
70302;BME280;57706;56.326;43.882;2023-01-20T07:42:28;101921.16;;;1.82;39.74
70302;BME280;57706;56.326;43.882;2023-01-20T07:44:54;101951.19;;;1.87;40.17
70302;BME280;57706;56.326;43.882;2023-01-20T07:47:20;101944.47;;;2.02;39.48
70302;BME280;57706;56.326;43.882;2023-01-20T07:49:46;101923.69;;;1.83;39.53
70302;BME280;57706;56.326;43.882;2023-01-20T07:52:11;101934.44;;;1.95;39.62
70302;BME280;57706;56.326;43.882;2023-01-20T07:54:37;101944.28;;;2.07;38.57
70302;BME280;57706;56.326;43.882;2023-01-20T07:57:03;101936.91;;;1.98;39.08
70302;BME280;57706;56.326;43.882;2023-01-20T07:59:29;101958.47;;;1.79;38.52
70302;BME280;57706;56.326;43.882;2023-01-20T08:01:54;101946.53;;;1.96;38.68
70302;BME280;57706;56.326;43.882;2023-01-20T08:04:20;101958.31;;;1.82;39.24
70302;BME280;57706;56.326;43.882;2023-01-20T08:06:46;101939.81;;;1.90;39.36
70302;BME280;57706;56.326;43.882;2023-01-20T08:09:12;101959.38;;;2.18;38.59
70302;BME280;57706;56.326;43.882;2023-01-20T08:11:39;101926.13;;;2.45;38.08
70302;BME280;57706;56.326;43.882;2023-01-20T08:14:05;101949.38;;;2.66;36.96
70302;BME280;57706;56.326;43.882;2023-01-20T08:16:32;101955.53;;;2.83;37.10
70302;BME280;57706;56.326;43.882;2023-01-20T08:18:58;101981.97;;;2.91;36.47
70302;BME280;57706;56.326;43.882;2023-01-20T08:21:25;101951.50;;;2.58;37.10
70302;BME280;57706;56.326;43.882;2023-01-20T08:23:53;101951.63;;;2.74;37.11
70302;BME280;57706;56.326;43.882;2023-01-20T08:26:19;101961.84;;;2.96;35.96
70302;BME280;57706;56.326;43.882;2023-01-20T08:28:45;101965.19;;;2.98;36.21
70302;BME280;57706;56.326;43.882;2023-01-20T08:31:17;101969.34;;;3.20;35.59
70302;BME280;57706;56.326;43.882;2023-01-20T08:33:44;101945.97;;;3.20;35.68
70302;BME280;57706;56.326;43.882;2023-01-20T08:36:13;101959.25;;;3.14;35.81
70302;BME280;57706;56.326;43.882;2023-01-20T08:38:39;101945.97;;;3.20;35.28
70302;BME280;57706;56.326;43.882;2023-01-20T08:41:11;101952.88;;;2.84;35.78
70302;BME280;57706;56.326;43.882;2023-01-20T08:43:37;101965.63;;;2.89;36.00
70302;BME280;57706;56.326;43.882;2023-01-20T08:46:06;101984.00;;;3.03;35.80
70302;BME280;57706;56.326;43.882;2023-01-20T08:48:33;101958.59;;;2.91;36.37
70302;BME280;57706;56.326;43.882;2023-01-20T08:51:20;101955.81;;;2.77;36.09
70302;BME280;57706;56.326;43.882;2023-01-20T08:53:47;101969.72;;;2.75;36.11
70302;BME280;57706;56.326;43.882;2023-01-20T08:56:13;101972.34;;;2.93;35.66
70302;BME280;57706;56.326;43.882;2023-01-20T08:58:58;101941.81;;;2.61;36.05
70302;BME280;57706;56.326;43.882;2023-01-20T09:01:27;101961.88;;;2.58;36.48
70302;BME280;57706;56.326;43.882;2023-01-20T09:04:11;101967.97;;;3.13;35.54
70302;BME280;57706;56.326;43.882;2023-01-20T09:09:03;101962.78;;;3.13;35.87
70302;BME280;57706;56.326;43.882;2023-01-20T09:11:29;101966.88;;;3.35;35.18
70302;BME280;57706;56.326;43.882;2023-01-20T09:13:55;101960.00;;;3.34;35.14
70302;BME280;57706;56.326;43.882;2023-01-20T09:16:22;101971.31;;;3.33;34.36
70302;BME280;57706;56.326;43.882;2023-01-20T09:18:48;101962.59;;;3.16;35.12
70302;BME280;57706;56.326;43.882;2023-01-20T09:21:14;101952.00;;;2.84;35.75
70302;BME280;57706;56.326;43.882;2023-01-20T09:23:40;101963.28;;;2.65;35.65
70302;BME280;57706;56.326;43.882;2023-01-20T09:26:07;101961.31;;;2.70;35.18
70302;BME280;57706;56.326;43.882;2023-01-20T09:28:34;101962.97;;;2.91;35.02
70302;BME280;57706;56.326;43.882;2023-01-20T09:31:02;101950.06;;;3.07;35.62
70302;BME280;57706;56.326;43.882;2023-01-20T09:33:29;101947.38;;;2.91;35.51
70302;BME280;57706;56.326;43.882;2023-01-20T09:35:56;101957.50;;;2.78;35.77
70302;BME280;57706;56.326;43.882;2023-01-20T09:38:23;101966.56;;;3.06;34.51
70302;BME280;57706;56.326;43.882;2023-01-20T09:46:50;101968.06;;;2.92;35.36
70302;BME280;57706;56.326;43.882;2023-01-20T09:49:49;101981.28;;;2.87;34.79
70302;BME280;57706;56.326;43.882;2023-01-20T09:53:05;101980.09;;;2.75;35.34
70302;BME280;57706;56.326;43.882;2023-01-20T10:00:51;101979.28;;;2.56;35.53
70302;BME280;57706;56.326;43.882;2023-01-20T10:06:18;101980.25;;;2.72;35.16
70302;BME280;57706;56.326;43.882;2023-01-20T10:09:02;101962.84;;;2.74;35.56
70302;BME280;57706;56.326;43.882;2023-01-20T10:11:36;101968.34;;;2.86;35.46
70302;BME280;57706;56.326;43.882;2023-01-20T10:14:27;101982.78;;;3.64;34.31
70302;BME280;57706;56.326;43.882;2023-01-20T10:19:49;101969.19;;;3.58;34.73
70302;BME280;57706;56.326;43.882;2023-01-20T10:22:31;101972.88;;;3.54;34.16
70302;BME280;57706;56.326;43.882;2023-01-20T10:25:07;101978.19;;;3.16;35.08
70302;BME280;57706;56.326;43.882;2023-01-20T10:27:36;101985.56;;;2.88;34.87
70302;BME280;57706;56.326;43.882;2023-01-20T10:30:09;101974.00;;;2.77;35.19
70302;BME280;57706;56.326;43.882;2023-01-20T10:32:37;101984.13;;;3.00;34.74
70302;BME280;57706;56.326;43.882;2023-01-20T10:35:09;102000.19;;;3.09;34.22
70302;BME280;57706;56.326;43.882;2023-01-20T10:37:40;102006.72;;;2.81;35.08
70302;BME280;57706;56.326;43.882;2023-01-20T10:40:31;101978.78;;;2.67;35.01
70302;BME280;57706;56.326;43.882;2023-01-20T10:43:09;102006.78;;;2.41;35.81
70302;BME280;57706;56.326;43.882;2023-01-20T10:49:28;101996.31;;;2.81;34.74
70302;BME280;57706;56.326;43.882;2023-01-20T10:55:15;101992.47;;;2.70;34.93
70302;BME280;57706;56.326;43.882;2023-01-20T10:57:47;102004.69;;;2.49;35.47
70302;BME280;57706;56.326;43.882;2023-01-20T11:00:22;102012.97;;;2.57;35.66
70302;BME280;57706;56.326;43.882;2023-01-20T11:02:49;101987.63;;;2.43;35.71
70302;BME280;57706;56.326;43.882;2023-01-20T11:05:31;101987.63;;;2.63;35.93
70302;BME280;57706;56.326;43.882;2023-01-20T11:08:26;101981.50;;;2.64;36.25
70302;BME280;57706;56.326;43.882;2023-01-20T11:10:55;102004.97;;;2.43;36.24
70302;BME280;57706;56.326;43.882;2023-01-20T11:13:22;102006.44;;;2.48;36.11
70302;BME280;57706;56.326;43.882;2023-01-20T11:16:01;102020.25;;;2.30;36.41
70302;BME280;57706;56.326;43.882;2023-01-20T11:18:30;101983.78;;;2.33;36.43
70302;BME280;57706;56.326;43.882;2023-01-20T11:21:00;102001.50;;;2.42;36.55
70302;BME280;57706;56.326;43.882;2023-01-20T11:23:50;101993.06;;;1.99;38.13
70302;BME280;57706;56.326;43.882;2023-01-20T11:26:26;102000.69;;;2.02;38.13
70302;BME280;57706;56.326;43.882;2023-01-20T11:31:42;102013.66;;;2.02;37.76
70302;BME280;57706;56.326;43.882;2023-01-20T11:34:34;102029.06;;;2.26;36.57
70302;BME280;57706;56.326;43.882;2023-01-20T11:39:35;102009.94;;;2.28;36.21
70302;BME280;57706;56.326;43.882;2023-01-20T11:42:17;101996.25;;;2.25;37.59
70302;BME280;57706;56.326;43.882;2023-01-20T11:45:02;101985.28;;;1.99;38.46
70302;BME280;57706;56.326;43.882;2023-01-20T11:47:31;101994.72;;;2.00;38.41
70302;BME280;57706;56.326;43.882;2023-01-20T11:52:38;102018.78;;;2.03;36.67
70302;BME280;57706;56.326;43.882;2023-01-20T11:57:43;102024.38;;;1.94;36.75
70302;BME280;57706;56.326;43.882;2023-01-20T12:08:20;102042.91;;;1.64;37.97
70302;BME280;57706;56.326;43.882;2023-01-20T12:10:49;102026.38;;;1.67;38.11
70302;BME280;57706;56.326;43.882;2023-01-20T12:13:19;102046.34;;;1.85;37.06
70302;BME280;57706;56.326;43.882;2023-01-20T12:15:50;102041.25;;;1.61;37.54
70302;BME280;57706;56.326;43.882;2023-01-20T12:18:37;102045.56;;;1.62;37.87
70302;BME280;57706;56.326;43.882;2023-01-20T12:23:45;102066.31;;;1.62;37.28
70302;BME280;57706;56.326;43.882;2023-01-20T12:26:14;102044.19;;;1.54;38.21
70302;BME280;57706;56.326;43.882;2023-01-20T12:31:34;102030.25;;;1.77;38.06
70302;BME280;57706;56.326;43.882;2023-01-20T12:34:13;102025.59;;;1.85;37.22
70302;BME280;57706;56.326;43.882;2023-01-20T12:48:24;102033.25;;;1.47;38.99
70302;BME280;57706;56.326;43.882;2023-01-20T12:59:24;102034.69;;;1.54;38.00
70302;BME280;57706;56.326;43.882;2023-01-20T13:04:58;102044.00;;;1.58;38.44
70302;BME280;57706;56.326;43.882;2023-01-20T13:07:37;102049.19;;;1.58;38.35
70302;BME280;57706;56.326;43.882;2023-01-20T13:13:07;102049.47;;;1.73;37.48
70302;BME280;57706;56.326;43.882;2023-01-20T13:15:47;102052.97;;;1.72;37.59
70302;BME280;57706;56.326;43.882;2023-01-20T13:21:04;102055.56;;;1.72;38.26
70302;BME280;57706;56.326;43.882;2023-01-20T13:23:33;102056.91;;;1.60;38.06
70302;BME280;57706;56.326;43.882;2023-01-20T13:26:00;102039.19;;;1.49;38.76
70302;BME280;57706;56.326;43.882;2023-01-20T13:28:30;102052.69;;;1.57;38.87
70302;BME280;57706;56.326;43.882;2023-01-20T13:30:57;102047.38;;;1.60;38.15
70302;BME280;57706;56.326;43.882;2023-01-20T13:33:39;102054.91;;;1.67;38.24
70302;BME280;57706;56.326;43.882;2023-01-20T13:36:20;102074.25;;;1.35;39.25
70302;BME280;57706;56.326;43.882;2023-01-20T13:38:50;102068.72;;;1.45;38.42
70302;BME280;57706;56.326;43.882;2023-01-20T13:41:47;102065.25;;;1.46;37.93
70302;BME280;57706;56.326;43.882;2023-01-20T13:46:58;102051.72;;;1.60;37.81
70302;BME280;57706;56.326;43.882;2023-01-20T13:49:27;102076.81;;;1.37;38.14
70302;BME280;57706;56.326;43.882;2023-01-20T13:52:12;102067.50;;;1.54;38.26
70302;BME280;57706;56.326;43.882;2023-01-20T13:54:43;102079.03;;;1.46;38.53
70302;BME280;57706;56.326;43.882;2023-01-20T13:59:55;102058.25;;;1.48;37.78
70302;BME280;57706;56.326;43.882;2023-01-20T14:02:23;102085.34;;;1.61;37.56
70302;BME280;57706;56.326;43.882;2023-01-20T14:04:50;102077.16;;;1.50;38.10
70302;BME280;57706;56.326;43.882;2023-01-20T14:07:27;102094.88;;;1.39;38.17
70302;BME280;57706;56.326;43.882;2023-01-20T14:09:58;102103.31;;;1.66;37.69
70302;BME280;57706;56.326;43.882;2023-01-20T14:12:25;102089.81;;;1.35;38.29
70302;BME280;57706;56.326;43.882;2023-01-20T14:14:52;102129.47;;;1.37;38.48
70302;BME280;57706;56.326;43.882;2023-01-20T14:17:21;102115.25;;;1.48;38.36
70302;BME280;57706;56.326;43.882;2023-01-20T14:19:48;102132.41;;;1.28;38.96
70302;BME280;57706;56.326;43.882;2023-01-20T14:22:26;102127.53;;;1.43;38.91
70302;BME280;57706;56.326;43.882;2023-01-20T14:24:54;102129.22;;;1.21;38.95
70302;BME280;57706;56.326;43.882;2023-01-20T14:27:31;102108.13;;;1.31;38.77
70302;BME280;57706;56.326;43.882;2023-01-20T14:30:21;102107.66;;;1.21;39.68
70302;BME280;57706;56.326;43.882;2023-01-20T14:32:49;102139.41;;;1.02;39.80
70302;BME280;57706;56.326;43.882;2023-01-20T14:35:27;102116.44;;;1.17;39.69
70302;BME280;57706;56.326;43.882;2023-01-20T14:37:56;102107.38;;;1.05;39.84
70302;BME280;57706;56.326;43.882;2023-01-20T14:40:31;102121.19;;;1.05;40.52
70302;BME280;57706;56.326;43.882;2023-01-20T14:43:13;102120.84;;;0.91;40.72
70302;BME280;57706;56.326;43.882;2023-01-20T14:45:58;102122.53;;;0.92;40.54
70302;BME280;57706;56.326;43.882;2023-01-20T14:48:24;102116.66;;;0.87;40.72
70302;BME280;57706;56.326;43.882;2023-01-20T14:50:51;102119.25;;;0.87;41.11
70302;BME280;57706;56.326;43.882;2023-01-20T14:53:18;102111.75;;;0.80;41.29
70302;BME280;57706;56.326;43.882;2023-01-20T14:56:00;102130.19;;;0.95;40.85
70302;BME280;57706;56.326;43.882;2023-01-20T14:58:27;102125.13;;;0.92;40.95
70302;BME280;57706;56.326;43.882;2023-01-20T15:01:04;102124.56;;;0.84;41.32
70302;BME280;57706;56.326;43.882;2023-01-20T15:03:31;102117.44;;;0.66;41.40